createdAt,value
2022-12-11T00:00:28.862Z,149.40
2022-12-11T00:02:56.807Z,191.48
2022-12-11T00:05:24.270Z,232.52
2022-12-11T00:07:51.387Z,235.30
2022-12-11T00:10:18.415Z,259.40
2022-12-11T00:12:45.475Z,191.77
2022-12-11T00:15:12.953Z,140.65
2022-12-11T00:17:40.227Z,242.00
2022-12-11T00:20:08.208Z,190.55
2022-12-11T00:22:35.403Z,189.52
2022-12-11T00:25:02.547Z,214.23
2022-12-11T00:27:30.087Z,170.13
2022-12-11T00:29:57.627Z,150.38
2022-12-11T00:32:28.217Z,348.92
2022-12-11T00:34:55.509Z,267.50
2022-12-11T00:37:22.482Z,173.57
2022-12-11T00:39:49.530Z,163.45
2022-12-11T00:42:16.618Z,202.27
2022-12-11T00:44:43.599Z,219.57
2022-12-11T00:47:10.652Z,228.70
2022-12-11T00:49:37.620Z,322.38
2022-12-11T00:52:07.516Z,209.95
2022-12-11T00:54:37.482Z,390.88
2022-12-11T00:57:04.471Z,149.02
2022-12-11T00:59:31.782Z,288.33
2022-12-11T01:01:58.793Z,325.40
2022-12-11T01:04:25.838Z,112.53
2022-12-11T01:06:52.936Z,193.35
2022-12-11T01:09:38.425Z,228.93
2022-12-11T01:12:08.359Z,147.73
2022-12-11T01:14:35.511Z,170.90
2022-12-11T01:17:02.636Z,184.40
2022-12-11T01:19:29.718Z,137.48
2022-12-11T01:21:56.743Z,155.55
2022-12-11T01:24:23.782Z,113.22
2022-12-11T01:26:50.889Z,159.45
2022-12-11T01:29:17.994Z,171.00
2022-12-11T01:31:45.026Z,129.60
2022-12-11T01:34:12.522Z,218.25
2022-12-11T01:36:39.574Z,175.43
2022-12-11T01:39:06.712Z,396.95
2022-12-11T01:41:33.792Z,353.15
2022-12-11T01:44:28.798Z,174.35
2022-12-11T01:46:56.023Z,191.55
2022-12-11T01:49:26.962Z,202.05
2022-12-11T01:52:01.803Z,166.82
2022-12-11T01:54:30.361Z,110.40
2022-12-11T01:57:04.083Z,119.03
2022-12-11T01:59:34.314Z,255.27
2022-12-11T02:02:06.320Z,208.63
2022-12-11T02:04:36.102Z,231.15
2022-12-11T02:07:04.064Z,309.05
2022-12-11T02:09:34.007Z,228.90
2022-12-11T02:12:11.440Z,261.40
2022-12-11T02:14:44.445Z,178.63
2022-12-11T02:17:29.756Z,195.05
2022-12-11T02:20:23.135Z,175.63
2022-12-11T02:23:11.889Z,157.68
2022-12-11T02:25:57.606Z,224.90
2022-12-11T02:28:38.223Z,158.52
2022-12-11T02:31:29.852Z,116.22
2022-12-11T02:34:04.632Z,267.27
2022-12-11T02:36:37.861Z,103.38
2022-12-11T02:39:07.847Z,156.25
2022-12-11T02:41:35.343Z,186.40
2022-12-11T02:44:05.345Z,293.30
2022-12-11T02:46:34.749Z,193.05
2022-12-11T02:49:05.648Z,243.23
2022-12-11T02:51:41.534Z,165.60
2022-12-11T02:54:13.950Z,240.55
2022-12-11T02:56:46.813Z,229.48
2022-12-11T02:59:20.178Z,212.68
2022-12-11T03:01:47.746Z,286.85
2022-12-11T03:04:15.082Z,221.63
2022-12-11T03:06:48.587Z,187.65
2022-12-11T03:09:15.701Z,175.93
2022-12-11T03:11:42.845Z,227.65
2022-12-11T03:14:10.011Z,296.15
2022-12-11T03:16:40.141Z,236.23
2022-12-11T03:19:13.141Z,299.88
2022-12-11T03:21:50.337Z,304.77
2022-12-11T03:24:28.821Z,197.85
2022-12-11T03:27:11.257Z,271.70
2022-12-11T03:29:45.428Z,198.88
2022-12-11T03:32:20.057Z,202.73
2022-12-11T03:34:59.915Z,304.42
2022-12-11T03:37:31.331Z,187.90
2022-12-11T03:40:04.611Z,171.32
2022-12-11T03:42:32.404Z,226.48
2022-12-11T03:45:01.254Z,164.40
2022-12-11T03:47:32.419Z,257.05
2022-12-11T03:50:01.606Z,147.95
2022-12-11T03:52:32.588Z,199.45
2022-12-11T03:55:03.744Z,390.88
2022-12-11T03:57:35.359Z,126.05
2022-12-11T04:00:05.163Z,236.65
2022-12-11T04:02:39.689Z,214.68
2022-12-11T04:05:07.608Z,179.82
2022-12-11T04:07:34.908Z,300.38
2022-12-11T04:10:02.787Z,403.02
2022-12-11T04:12:30.269Z,271.77
2022-12-11T04:15:03.251Z,369.52
2022-12-11T04:17:54.819Z,304.35
2022-12-11T04:20:57.560Z,338.38
2022-12-11T04:23:43.051Z,217.75
2022-12-11T04:26:13.233Z,333.75
2022-12-11T04:28:41.454Z,296.17
2022-12-11T04:31:17.246Z,318.83
2022-12-11T04:33:44.326Z,348.73
2022-12-11T04:36:12.520Z,359.90
2022-12-11T04:38:40.158Z,79.55
2022-12-11T04:41:12.708Z,317.80
2022-12-11T04:43:40.324Z,206.93
2022-12-11T04:46:10.976Z,267.52
2022-12-11T04:48:39.703Z,251.50
2022-12-11T04:51:08.239Z,251.23
2022-12-11T04:53:35.736Z,306.13
2022-12-11T04:56:06.317Z,180.15
2022-12-11T04:58:33.643Z,195.07
2022-12-11T05:01:00.656Z,177.63
2022-12-11T05:03:27.688Z,309.52
2022-12-11T05:05:54.778Z,329.98
2022-12-11T05:08:22.387Z,394.80
2022-12-11T05:11:00.299Z,279.08
2022-12-11T05:13:29.051Z,364.50
2022-12-11T05:15:56.937Z,107.28
2022-12-11T05:18:24.848Z,204.10
2022-12-11T05:20:59.363Z,322.83
2022-12-11T05:23:26.976Z,349.10
2022-12-11T05:25:59.762Z,383.95
2022-12-11T05:28:29.672Z,131.18
2022-12-11T05:31:02.613Z,324.13
2022-12-11T05:33:30.136Z,381.85
2022-12-11T05:35:57.644Z,65.50
2022-12-11T05:38:24.815Z,226.15
2022-12-11T05:41:04.391Z,201.65
2022-12-11T05:43:34.296Z,237.00
2022-12-11T05:46:13.212Z,272.55
2022-12-11T05:48:41.440Z,241.85
2022-12-11T05:51:09.330Z,409.10
2022-12-11T05:53:38.281Z,298.75
2022-12-11T05:56:09.577Z,225.18
2022-12-11T05:58:39.409Z,267.60
2022-12-11T06:01:11.954Z,299.35
2022-12-11T06:03:39.382Z,433.00
2022-12-11T06:06:07.674Z,353.35
2022-12-11T06:08:35.008Z,297.80
2022-12-11T06:11:02.385Z,321.17
2022-12-11T06:13:29.677Z,345.30
2022-12-11T06:16:01.576Z,283.92
2022-12-11T06:18:29.186Z,258.23
2022-12-11T06:20:56.378Z,341.65
2022-12-11T06:23:23.899Z,300.20
2022-12-11T06:25:50.992Z,244.40
2022-12-11T06:28:18.060Z,158.05
2022-12-11T06:30:45.244Z,392.88
2022-12-11T06:33:12.418Z,192.80
2022-12-11T06:35:42.277Z,83.00
2022-12-11T06:38:10.921Z,122.88
2022-12-11T06:40:38.468Z,164.02
2022-12-11T06:43:05.513Z,249.68
2022-12-11T06:45:33.272Z,313.92
2022-12-11T06:48:00.767Z,236.30
2022-12-11T06:50:28.926Z,120.72
2022-12-11T06:52:56.975Z,88.88
2022-12-11T06:55:24.134Z,108.43
2022-12-11T06:57:51.229Z,142.10
2022-12-11T07:00:18.583Z,114.25
2022-12-11T07:02:45.806Z,149.77
2022-12-11T07:05:16.169Z,342.33
2022-12-11T07:07:43.518Z,101.40
2022-12-11T07:10:10.668Z,55.22
2022-12-11T07:12:37.799Z,44.03
2022-12-11T07:15:05.756Z,56.20
2022-12-11T07:17:33.403Z,48.08
2022-12-11T07:20:00.737Z,28.02
2022-12-11T07:22:31.363Z,33.42
2022-12-11T07:24:58.582Z,96.20
2022-12-11T07:27:26.612Z,117.57
2022-12-11T07:29:55.636Z,30.25
2022-12-11T07:32:22.954Z,50.35
2022-12-11T07:34:52.129Z,134.65
2022-12-11T07:37:20.536Z,98.90
2022-12-11T07:39:49.083Z,49.00
2022-12-11T07:42:16.208Z,60.63
2022-12-11T07:44:43.350Z,78.68
2022-12-11T07:47:10.374Z,126.90
2022-12-11T07:49:37.464Z,114.28
2022-12-11T07:52:04.637Z,119.57
2022-12-11T07:54:31.747Z,110.15
2022-12-11T07:56:58.839Z,24.45
2022-12-11T07:59:26.083Z,29.52
2022-12-11T08:01:53.281Z,28.13
2022-12-11T08:04:20.458Z,25.13
2022-12-11T08:06:50.658Z,31.48
2022-12-11T08:09:21.254Z,32.03
2022-12-11T08:11:51.388Z,28.90
2022-12-11T08:14:19.711Z,24.20
2022-12-11T08:16:47.248Z,24.00
2022-12-11T08:19:15.143Z,26.52
2022-12-11T08:21:42.469Z,24.13
2022-12-11T08:24:10.368Z,26.88
2022-12-11T08:26:37.572Z,27.27
2022-12-11T08:29:04.899Z,26.98
2022-12-11T08:31:33.520Z,39.67
2022-12-11T08:34:00.927Z,36.65
2022-12-11T08:36:28.967Z,26.75
2022-12-11T08:38:56.756Z,29.10
2022-12-11T08:41:30.591Z,31.33
2022-12-11T08:43:59.036Z,30.80
2022-12-11T08:46:28.770Z,27.27
2022-12-11T08:48:56.951Z,23.35
2022-12-11T08:51:27.119Z,25.33
2022-12-11T08:53:59.792Z,23.52
2022-12-11T08:56:28.332Z,31.13
2022-12-11T08:58:55.476Z,27.38
2022-12-11T09:01:25.553Z,38.20
2022-12-11T09:03:53.996Z,24.00
2022-12-11T09:06:23.228Z,24.98
2022-12-11T09:08:53.178Z,23.63
2022-12-11T09:11:27.774Z,26.35
2022-12-11T09:13:54.995Z,26.02
2022-12-11T09:16:24.837Z,25.30
2022-12-11T09:18:53.921Z,28.58
2022-12-11T09:21:23.820Z,22.88
2022-12-11T09:23:54.512Z,25.67
2022-12-11T09:26:22.077Z,29.23
2022-12-11T09:28:53.149Z,29.10
2022-12-11T09:31:30.252Z,18.10
2022-12-11T09:34:01.010Z,22.27
2022-12-11T09:36:28.546Z,27.02
2022-12-11T09:38:55.916Z,24.13
2022-12-11T09:41:22.912Z,23.10
2022-12-11T09:43:52.632Z,30.70
2022-12-11T09:46:24.436Z,26.83
2022-12-11T09:48:53.839Z,23.80
2022-12-11T09:51:30.453Z,30.35
2022-12-11T09:54:02.991Z,25.98
2022-12-11T09:56:34.172Z,22.63
2022-12-11T09:59:23.282Z,25.10
2022-12-11T10:01:54.966Z,28.55
2022-12-11T10:04:34.096Z,35.45
2022-12-11T10:07:18.660Z,25.52
2022-12-11T10:09:55.842Z,27.20
2022-12-11T10:12:38.694Z,25.33
2022-12-11T10:15:26.401Z,31.67
2022-12-11T10:18:02.967Z,30.52
2022-12-11T10:20:39.206Z,27.00
2022-12-11T10:23:18.614Z,24.92
2022-12-11T10:25:57.318Z,25.13
2022-12-11T10:28:28.251Z,29.00
2022-12-11T10:31:17.306Z,25.95
2022-12-11T10:34:00.892Z,21.95
2022-12-11T10:39:17.073Z,31.63
2022-12-11T10:44:33.201Z,30.05
2022-12-11T10:47:14.110Z,25.98
2022-12-11T10:49:55.106Z,31.23
2022-12-11T10:52:34.245Z,27.25
2022-12-11T10:55:23.199Z,27.83
2022-12-11T11:01:12.522Z,27.65
2022-12-11T11:04:06.943Z,24.55
2022-12-11T11:06:34.182Z,25.05
2022-12-11T11:09:02.540Z,28.02
2022-12-11T11:11:33.965Z,30.38
2022-12-11T11:14:23.445Z,26.25
2022-12-11T11:16:52.782Z,27.67
2022-12-11T11:19:36.336Z,28.60
2022-12-11T11:22:08.980Z,23.52
2022-12-11T11:24:44.890Z,31.20
2022-12-11T11:27:52.515Z,27.83
2022-12-11T11:30:29.796Z,24.65
2022-12-11T11:33:02.861Z,30.45
2022-12-11T11:35:32.447Z,23.40
2022-12-11T11:41:21.903Z,25.60
2022-12-11T12:13:50.166Z,22.92
2022-12-11T12:19:30.754Z,23.35
2022-12-11T12:22:14.705Z,25.10
2022-12-11T12:25:09.137Z,27.40
2022-12-11T12:28:07.572Z,27.00
2022-12-11T12:30:58.762Z,25.30
2022-12-11T12:33:49.375Z,30.20
2022-12-11T12:36:23.204Z,16.65
2022-12-11T12:39:02.411Z,18.50
2022-12-11T12:41:55.534Z,18.30
2022-12-11T12:44:25.038Z,17.60
2022-12-11T12:47:12.795Z,15.40
2022-12-11T12:49:51.250Z,16.45
2022-12-11T12:52:27.687Z,14.90
2022-12-11T12:55:16.609Z,15.75
2022-12-11T12:57:57.949Z,18.55
2022-12-11T13:00:36.756Z,16.70
2022-12-11T13:03:30.701Z,13.25
2022-12-11T13:06:08.035Z,13.02
2022-12-11T13:08:43.864Z,12.35
2022-12-11T13:11:18.114Z,14.23
2022-12-11T13:16:46.085Z,10.98
2022-12-11T13:19:18.019Z,16.27
2022-12-11T13:21:57.048Z,16.63
2022-12-11T13:24:25.949Z,18.67
2022-12-11T13:26:53.307Z,15.80
2022-12-11T13:29:40.161Z,21.33
2022-12-11T13:32:10.111Z,13.32
2022-12-11T13:34:43.383Z,14.43
2022-12-11T13:39:50.679Z,13.15
2022-12-11T13:42:39.262Z,12.48
2022-12-11T13:45:08.557Z,19.20
2022-12-11T13:47:36.551Z,13.93
2022-12-11T13:50:23.135Z,13.93
2022-12-11T13:52:55.253Z,17.33
2022-12-11T13:55:26.224Z,18.83
2022-12-11T13:57:54.399Z,14.45
2022-12-11T14:00:24.866Z,15.57
2022-12-11T14:02:55.034Z,17.85
2022-12-11T14:05:22.934Z,14.63
2022-12-11T14:07:54.532Z,15.95
2022-12-11T14:10:28.752Z,17.23
2022-12-11T14:13:14.874Z,17.83
2022-12-11T14:15:45.858Z,15.90
2022-12-11T14:18:18.362Z,22.17
2022-12-11T14:20:45.598Z,16.60
2022-12-11T14:23:18.755Z,15.63
2022-12-11T14:28:22.010Z,27.27
2022-12-11T14:30:52.180Z,27.00
2022-12-11T14:33:23.668Z,31.38
2022-12-11T14:35:55.369Z,25.75
2022-12-11T14:38:44.555Z,30.33
2022-12-11T14:41:22.374Z,21.65
2022-12-11T14:43:53.535Z,23.52
2022-12-11T14:46:33.281Z,27.73
2022-12-11T14:49:07.516Z,19.20
2022-12-11T14:51:40.660Z,24.30
2022-12-11T14:54:20.181Z,26.60
2022-12-11T14:56:47.745Z,27.70
2022-12-11T14:59:25.662Z,34.70
2022-12-11T15:02:03.620Z,27.13
2022-12-11T15:04:33.604Z,53.58
2022-12-11T15:07:00.921Z,35.97
2022-12-11T15:09:28.720Z,40.25
2022-12-11T15:12:08.656Z,87.20
2022-12-11T15:14:35.929Z,46.00
2022-12-11T15:17:03.141Z,25.38
2022-12-11T15:19:35.261Z,33.25
2022-12-11T15:22:09.776Z,63.13
2022-12-11T15:24:40.620Z,41.15
2022-12-11T15:27:37.513Z,22.92
2022-12-11T15:30:32.213Z,45.97
2022-12-11T15:33:02.700Z,24.13
2022-12-11T15:35:32.913Z,21.83
2022-12-11T15:38:00.012Z,46.20
2022-12-11T15:40:28.792Z,44.85
2022-12-11T15:42:57.576Z,159.60
2022-12-11T15:45:30.815Z,46.63
2022-12-11T15:50:30.370Z,45.95
2022-12-11T15:52:58.660Z,90.85
2022-12-11T15:55:27.472Z,274.15
2022-12-11T15:58:00.234Z,114.28
2022-12-11T16:00:39.647Z,248.57
2022-12-11T16:03:06.769Z,348.35
2022-12-11T16:05:33.842Z,247.20
2022-12-11T16:08:01.019Z,161.32
2022-12-11T16:10:28.404Z,266.98
2022-12-11T16:12:59.609Z,295.55
2022-12-11T16:15:27.674Z,330.20
2022-12-11T16:18:07.294Z,130.50
2022-12-11T16:20:38.269Z,272.15
2022-12-11T16:23:06.053Z,157.35
2022-12-11T16:25:34.296Z,173.90
2022-12-11T16:28:01.861Z,185.50
2022-12-11T16:30:29.884Z,106.28
2022-12-11T16:32:57.332Z,86.68
2022-12-11T16:35:24.447Z,41.33
2022-12-11T16:37:54.291Z,134.50
2022-12-11T16:40:22.368Z,227.77
2022-12-11T16:42:49.738Z,224.75
2022-12-11T16:45:22.673Z,178.38
2022-12-11T16:47:52.808Z,279.58
2022-12-11T16:50:20.964Z,212.25
2022-12-11T16:52:48.173Z,266.95
2022-12-11T16:55:15.778Z,318.73
2022-12-11T16:57:45.844Z,247.30
2022-12-11T17:00:13.507Z,105.82
2022-12-11T17:02:40.640Z,239.40
2022-12-11T17:05:08.220Z,175.55
2022-12-11T17:07:35.320Z,123.30
2022-12-11T17:10:03.374Z,87.18
2022-12-11T17:12:31.568Z,143.75
2022-12-11T17:14:58.756Z,151.20
2022-12-11T17:17:26.113Z,204.60
2022-12-11T17:19:53.292Z,336.65
2022-12-11T17:22:20.421Z,59.42
2022-12-11T17:24:47.730Z,223.85
2022-12-11T17:27:17.145Z,403.30
2022-12-11T17:29:44.470Z,114.53
2022-12-11T17:32:11.575Z,159.70
2022-12-11T17:34:38.906Z,369.70
2022-12-11T17:37:06.132Z,237.10
2022-12-11T17:39:33.640Z,535.65
2022-12-11T17:42:01.079Z,130.10
2022-12-11T17:44:30.689Z,110.53
2022-12-11T17:46:59.037Z,109.30
2022-12-11T17:49:26.832Z,222.32
2022-12-11T17:51:55.538Z,37.75
2022-12-11T17:54:24.264Z,55.00
2022-12-11T17:56:51.642Z,75.75
2022-12-11T17:59:18.711Z,47.80
2022-12-11T18:01:45.891Z,26.52
2022-12-11T18:04:13.642Z,5.35
2022-12-11T18:06:40.844Z,4.50
2022-12-11T18:09:08.017Z,76.97
2022-12-11T18:11:35.334Z,9.27
2022-12-11T18:14:02.429Z,5.85
2022-12-11T18:16:33.434Z,2.22
2022-12-11T18:19:00.864Z,3.35
2022-12-11T18:21:31.965Z,7.95
2022-12-11T18:24:00.101Z,5.93
2022-12-11T18:26:29.202Z,4.97
2022-12-11T18:28:56.308Z,5.43
2022-12-11T18:31:24.529Z,4.32
2022-12-11T18:33:52.360Z,2.28
2022-12-11T18:36:20.286Z,3.78
2022-12-11T18:38:48.168Z,2.13
2022-12-11T18:41:16.820Z,2.97
2022-12-11T18:43:44.384Z,2.63
2022-12-11T18:46:14.452Z,3.83
2022-12-11T18:48:43.381Z,3.33
2022-12-11T18:51:14.032Z,3.45
2022-12-11T18:53:41.436Z,3.28
2022-12-11T18:56:11.439Z,4.47
2022-12-11T18:58:39.213Z,3.78
2022-12-11T19:01:26.973Z,4.35
2022-12-11T19:04:02.047Z,2.28
2022-12-11T19:06:33.307Z,3.08
2022-12-11T19:09:00.589Z,2.85
2022-12-11T19:11:30.245Z,13.45
2022-12-11T19:13:57.973Z,21.85
2022-12-11T19:16:33.891Z,35.28
2022-12-11T19:19:07.500Z,32.35
2022-12-11T19:21:36.822Z,6.97
2022-12-11T19:24:04.962Z,5.15
2022-12-11T19:26:32.416Z,16.85
2022-12-11T19:29:00.440Z,7.40
2022-12-11T19:31:29.796Z,5.28
2022-12-11T19:33:56.945Z,7.18
2022-12-11T19:36:28.205Z,4.32
2022-12-11T19:39:01.221Z,3.15
2022-12-11T19:41:30.358Z,6.95
2022-12-11T19:43:59.087Z,5.25
2022-12-11T19:46:27.417Z,10.15
2022-12-11T19:48:57.821Z,17.52
2022-12-11T19:51:28.625Z,12.38
2022-12-11T19:53:56.227Z,23.35
2022-12-11T19:56:23.424Z,17.20
2022-12-11T19:58:50.499Z,8.18
2022-12-11T20:01:31.073Z,64.93
2022-12-11T20:04:01.216Z,11.98
2022-12-11T20:06:29.971Z,16.73
2022-12-11T20:08:58.138Z,48.05
2022-12-11T20:11:25.819Z,20.25
2022-12-11T20:13:55.589Z,32.30
2022-12-11T20:16:39.487Z,65.75
2022-12-11T20:19:10.373Z,42.22
2022-12-11T20:21:37.539Z,49.13
2022-12-11T20:24:04.778Z,60.40
2022-12-11T20:26:32.669Z,148.13
2022-12-11T20:28:59.773Z,25.45
2022-12-11T20:31:27.697Z,96.40
2022-12-11T20:33:56.326Z,38.05
2022-12-11T20:36:24.511Z,153.95
2022-12-11T20:38:52.216Z,205.88
2022-12-11T20:41:21.865Z,144.02
2022-12-11T20:43:49.698Z,274.98
2022-12-11T20:46:18.592Z,330.90
2022-12-11T20:48:46.218Z,152.00
2022-12-11T20:51:19.699Z,289.80
2022-12-11T20:53:57.518Z,68.70
2022-12-11T20:56:26.769Z,286.55
2022-12-11T20:58:54.877Z,158.00
2022-12-11T21:01:24.024Z,290.70
2022-12-11T21:03:53.402Z,112.75
2022-12-11T21:06:25.960Z,231.10
2022-12-11T21:08:53.979Z,28.70
2022-12-11T21:11:21.708Z,37.63
2022-12-11T21:13:51.884Z,101.57
2022-12-11T21:16:19.929Z,154.48
2022-12-11T21:18:47.372Z,137.02
2022-12-11T21:21:15.531Z,194.75
2022-12-11T21:23:43.008Z,317.00
2022-12-11T21:26:10.678Z,438.15
2022-12-11T21:28:37.838Z,53.00
2022-12-11T21:31:09.039Z,195.35
2022-12-11T21:33:36.433Z,93.32
2022-12-11T21:36:06.013Z,324.08
2022-12-11T21:38:33.465Z,163.40
2022-12-11T21:41:14.550Z,287.88
2022-12-11T21:44:06.818Z,305.50
2022-12-11T21:46:30.423Z,225.77
2022-12-11T21:48:57.686Z,82.35
2022-12-11T21:51:37.770Z,43.25
2022-12-11T21:54:10.338Z,95.45
2022-12-11T21:56:37.370Z,279.05
2022-12-11T21:59:05.042Z,53.85
2022-12-11T22:01:36.155Z,71.53
2022-12-11T22:04:05.080Z,97.10
2022-12-11T22:06:32.691Z,187.27
2022-12-11T22:08:59.932Z,106.57
2022-12-11T22:11:30.386Z,53.15
2022-12-11T22:13:57.978Z,56.47
2022-12-11T22:16:25.249Z,62.45
2022-12-11T22:18:53.144Z,487.48
2022-12-11T22:21:21.017Z,107.78
2022-12-11T22:23:48.483Z,52.33
2022-12-11T22:26:21.724Z,66.25
2022-12-11T22:28:49.496Z,45.25
2022-12-11T22:31:20.655Z,66.50
2022-12-11T22:33:50.164Z,40.70
2022-12-11T22:36:19.143Z,66.15
2022-12-11T22:38:47.014Z,58.83
2022-12-11T22:41:24.620Z,34.75
2022-12-11T22:43:51.994Z,36.17
2022-12-11T22:46:22.538Z,44.63
2022-12-11T22:48:50.017Z,51.53
2022-12-11T22:51:17.511Z,45.05
2022-12-11T22:53:44.559Z,40.63
2022-12-11T22:56:13.313Z,37.75
2022-12-11T22:58:42.249Z,37.60
2022-12-11T23:01:15.546Z,22.77
2022-12-11T23:03:42.852Z,38.85
2022-12-11T23:06:12.330Z,28.90
2022-12-11T23:08:41.007Z,31.25
2022-12-11T23:11:29.835Z,32.20
2022-12-11T23:13:57.580Z,27.35
2022-12-11T23:16:26.254Z,36.97
2022-12-11T23:18:54.643Z,37.47
2022-12-11T23:21:22.089Z,17.23
2022-12-11T23:23:49.532Z,29.50
2022-12-11T23:26:18.884Z,34.08
2022-12-11T23:28:46.971Z,26.33
2022-12-11T23:31:14.614Z,29.63
2022-12-11T23:33:42.509Z,31.33
2022-12-11T23:36:10.057Z,29.33
2022-12-11T23:38:37.656Z,27.17
2022-12-11T23:41:06.091Z,30.35
2022-12-11T23:43:35.500Z,31.95
2022-12-11T23:46:13.911Z,26.80
2022-12-11T23:48:41.879Z,23.92
2022-12-11T23:51:11.705Z,28.42
2022-12-11T23:53:38.812Z,25.65
2022-12-11T23:56:12.563Z,34.08
2022-12-11T23:58:41.532Z,23.90
